Terminal Aerodrome Forecast
Issued by NWS Wakefield, VA

Home | Current Version | Previous Version | Text Only | Print | Product List | Glossary On
Versions: 1 2 3 4 5 6 7 8 9 10 11 12 13 14 15 16 17 18 19 20 21 22 23 24 25 26 27 28 29 30 31 32 33 34 35
000
FTUS41 KAKQ 231145 RRB
TAFSBY
TAF
KSBY 231145Z 2312/2412 07020G30KT 4SM -SHRA BR OVC006
      TEMPO 2312/2314 2SM SHRA BR OVC003
     FM231400 07023G34KT 3SM -SHRA BR OVC003
     FM231800 08018G28KT 4SM -SHRA BR OVC004
     FM232100 06013G20KT 5SM BR OVC005
     FM240200 01012KT 6SM -SHRA OVC005
     FM240900 33013G19KT 6SM -SHRA OVC006=

USA.gov is the U.S. government's official web portal to all federal, state and local government web resources and services.